ZSPD/PVG METAR and TAF weather

Enter ICAO airport designator
Station Type Date Time Source
ZSPD METAR 2020/01/20 19:00 UTC NOAA

ZSPD 201900Z 04002MPS 3500 BR NSC 06/04 Q1028 NOSIG


Station Type Date Time Source
ZSPD Decoded METAR 2020/01/20 19:00 UTC NOAA

Shanghai / Pudong, China (ZSPD) 31-07N 121-46E
Jan 20, 2020 - 02:00 PM EST / 2020.01.20 1900 UTC
Wind: from the NE (040 degrees) at 4 MPH (4 KT):0
Visibility: 2 mile(s):0
Weather: mist
Temperature: 42 F (6 C)
Dew Point: 39 F (4 C)
Relative Humidity: 86%
Pressure (altimeter): 30.36 in. Hg (1028 hPa)
ob: ZSPD 201900Z 04002MPS 3500 BR NSC 06/04 Q1028 NOSIG
cycle: 19

Station Type Date Time Source
ZSPD TAF 2020/01/20 18:03 UTC NOAA

TAF TAF ZSPD 201506Z 2018/2118 07004MPS 2000 BR BKN016 TX12/2105Z TN04/2021Z
BECMG 2022/2023 11004MPS 3500

Example: see airport list